createdAt,value
2017-12-01T00:00:07.483Z,994.85
2017-12-01T00:01:08.893Z,994.88
2017-12-01T00:02:10.295Z,994.84
2017-12-01T00:03:11.714Z,994.82
2017-12-01T00:04:13.127Z,994.86
2017-12-01T00:05:14.545Z,994.86
2017-12-01T00:06:15.955Z,994.87
2017-12-01T00:07:17.362Z,994.82
2017-12-01T00:08:18.769Z,994.81
2017-12-01T00:09:20.907Z,994.85
2017-12-01T00:10:22.318Z,994.87
2017-12-01T00:11:23.808Z,994.91
2017-12-01T00:12:25.225Z,994.89
2017-12-01T00:13:26.648Z,994.91
2017-12-01T00:14:28.056Z,994.93
2017-12-01T00:15:29.461Z,994.95
2017-12-01T00:16:30.890Z,994.97
2017-12-01T00:17:32.287Z,994.96
2017-12-01T00:18:33.739Z,995.04
2017-12-01T00:19:35.140Z,995.06
2017-12-01T00:20:36.552Z,995.07
2017-12-01T00:21:37.958Z,995.04
2017-12-01T00:22:39.372Z,995.06
2017-12-01T00:23:40.775Z,995.04
2017-12-01T00:24:42.247Z,995.00
2017-12-01T00:25:43.653Z,995.12
2017-12-01T00:26:45.062Z,995.09
2017-12-01T00:27:46.464Z,995.12
2017-12-01T00:28:47.876Z,995.17
2017-12-01T00:29:49.290Z,995.21
2017-12-01T00:30:50.700Z,995.14
2017-12-01T00:31:52.220Z,995.18
2017-12-01T00:32:53.645Z,995.17
2017-12-01T00:33:55.053Z,995.18
2017-12-01T00:34:56.485Z,995.13
2017-12-01T00:35:57.899Z,995.17
2017-12-01T00:36:59.309Z,995.24
2017-12-01T00:38:00.721Z,995.23
2017-12-01T00:39:02.141Z,995.21
2017-12-01T00:40:03.543Z,995.22
2017-12-01T00:41:04.958Z,995.29
2017-12-01T00:42:06.369Z,995.28
2017-12-01T00:43:07.775Z,995.27
2017-12-01T00:44:09.187Z,995.32
2017-12-01T00:45:10.594Z,995.30
2017-12-01T00:46:12.004Z,995.36
2017-12-01T00:47:13.419Z,995.40
2017-12-01T00:48:14.829Z,995.35
2017-12-01T00:49:16.229Z,995.39
2017-12-01T00:50:17.653Z,995.41
2017-12-01T00:51:19.048Z,995.45
2017-12-01T00:52:20.461Z,995.39
2017-12-01T00:53:21.879Z,995.42
2017-12-01T00:54:23.286Z,995.42
2017-12-01T00:55:24.700Z,995.44
2017-12-01T00:56:26.112Z,995.40
2017-12-01T00:57:27.509Z,995.47
2017-12-01T00:58:28.915Z,995.45
2017-12-01T00:59:30.329Z,995.45
2017-12-01T01:00:31.745Z,995.49
2017-12-01T01:01:33.161Z,995.46
2017-12-01T01:02:34.574Z,995.49
2017-12-01T01:03:35.980Z,995.56
2017-12-01T01:04:37.459Z,995.52
2017-12-01T01:05:38.868Z,995.48
2017-12-01T01:06:40.280Z,995.53
2017-12-01T01:07:41.687Z,995.53
2017-12-01T01:08:43.100Z,995.52
2017-12-01T01:09:44.518Z,995.58
2017-12-01T01:10:45.927Z,995.58
2017-12-01T01:11:47.351Z,995.56
2017-12-01T01:12:48.763Z,995.50
2017-12-01T01:13:50.167Z,995.52
2017-12-01T01:14:51.601Z,995.59
2017-12-01T01:15:53.003Z,995.60
2017-12-01T01:16:54.411Z,995.63
2017-12-01T01:17:55.929Z,995.64
2017-12-01T01:18:57.264Z,995.70
2017-12-01T01:19:58.671Z,995.72
2017-12-01T01:21:00.082Z,995.75
2017-12-01T01:22:01.498Z,995.75
2017-12-01T01:23:02.908Z,995.78
2017-12-01T01:24:04.317Z,995.76
2017-12-01T01:25:05.759Z,995.81
2017-12-01T01:26:07.171Z,995.79
2017-12-01T01:27:08.574Z,995.87
2017-12-01T01:28:09.983Z,995.86
2017-12-01T01:29:11.396Z,995.91
2017-12-01T01:30:12.809Z,995.85
2017-12-01T01:31:14.209Z,995.91
2017-12-01T01:32:15.614Z,995.92
2017-12-01T01:33:17.019Z,995.93
2017-12-01T01:34:18.398Z,995.92
2017-12-01T01:35:19.798Z,995.95
2017-12-01T01:36:21.207Z,996.01
2017-12-01T01:37:22.617Z,995.97
2017-12-01T01:38:24.028Z,995.98
2017-12-01T01:39:25.437Z,996.00
2017-12-01T01:40:26.848Z,995.98
2017-12-01T01:41:28.259Z,996.06
2017-12-01T01:42:29.670Z,996.05
2017-12-01T01:43:31.080Z,996.03
2017-12-01T01:44:32.487Z,996.08
2017-12-01T01:45:33.897Z,996.07
2017-12-01T01:46:35.313Z,996.01
2017-12-01T01:47:36.722Z,996.04
2017-12-01T01:48:38.138Z,996.03
2017-12-01T01:49:39.536Z,996.04
2017-12-01T01:50:40.944Z,996.06
2017-12-01T01:51:42.361Z,995.99
2017-12-01T01:52:43.770Z,996.01
2017-12-01T01:53:45.180Z,995.97
2017-12-01T01:54:46.581Z,995.97
2017-12-01T01:55:47.989Z,995.96
2017-12-01T01:56:49.406Z,996.00
2017-12-01T01:57:50.822Z,996.07
2017-12-01T01:58:52.229Z,996.02
2017-12-01T01:59:53.645Z,996.07
2017-12-01T02:00:55.047Z,996.17
2017-12-01T02:01:56.452Z,996.12
2017-12-01T02:02:57.856Z,996.13
2017-12-01T02:03:59.261Z,996.20
2017-12-01T02:05:00.684Z,996.18
2017-12-01T02:06:02.099Z,996.19
2017-12-01T02:07:03.514Z,996.21
2017-12-01T02:08:04.927Z,996.19
2017-12-01T02:09:06.328Z,996.16
2017-12-01T02:10:07.743Z,996.17
2017-12-01T02:11:09.158Z,996.11
2017-12-01T02:12:10.566Z,996.11
2017-12-01T02:13:11.980Z,996.17
2017-12-01T02:14:13.395Z,996.13
2017-12-01T02:15:14.805Z,996.15
2017-12-01T02:16:16.215Z,996.13
2017-12-01T02:17:17.633Z,996.10
2017-12-01T02:18:19.037Z,996.10
2017-12-01T02:19:20.445Z,996.11
2017-12-01T02:20:21.858Z,996.06
2017-12-01T02:21:23.276Z,996.03
2017-12-01T02:22:24.694Z,996.07
2017-12-01T02:23:26.107Z,996.05
2017-12-01T02:24:27.520Z,996.08
2017-12-01T02:25:28.919Z,996.13
2017-12-01T02:26:30.334Z,996.17
2017-12-01T02:27:31.750Z,996.15
2017-12-01T02:28:33.151Z,996.18
2017-12-01T02:29:34.557Z,996.23
2017-12-01T02:30:35.968Z,996.28
2017-12-01T02:31:37.387Z,996.24
2017-12-01T02:32:38.791Z,996.29
2017-12-01T02:33:40.206Z,996.29
2017-12-01T02:34:41.616Z,996.36
2017-12-01T02:35:43.032Z,996.36
2017-12-01T02:36:44.500Z,996.39
2017-12-01T02:37:45.910Z,996.45
2017-12-01T02:38:47.326Z,996.48
2017-12-01T02:39:48.733Z,996.46
2017-12-01T02:40:50.182Z,996.49
2017-12-01T02:41:51.599Z,996.53
2017-12-01T02:42:53.023Z,996.49
2017-12-01T02:43:54.428Z,996.50
2017-12-01T02:44:55.841Z,996.46
2017-12-01T02:45:57.393Z,996.50
2017-12-01T02:46:58.820Z,996.55
2017-12-01T02:48:00.220Z,996.55
2017-12-01T02:49:01.618Z,996.55
2017-12-01T02:50:03.027Z,996.61
2017-12-01T02:51:04.429Z,996.57
2017-12-01T02:52:05.831Z,996.63
2017-12-01T02:53:07.234Z,996.65
2017-12-01T02:54:08.639Z,996.64
2017-12-01T02:55:10.047Z,996.64
2017-12-01T02:56:11.467Z,996.64
2017-12-01T02:57:12.873Z,996.64
2017-12-01T02:58:14.282Z,996.61
2017-12-01T02:59:15.686Z,996.64
2017-12-01T03:00:17.094Z,996.68
2017-12-01T03:01:18.507Z,996.65
2017-12-01T03:02:19.908Z,996.69
2017-12-01T03:03:21.323Z,996.67
2017-12-01T03:04:22.737Z,996.73
2017-12-01T03:05:24.147Z,996.69
2017-12-01T03:06:25.563Z,996.72
2017-12-01T03:07:26.990Z,996.73
2017-12-01T03:08:28.395Z,996.68
2017-12-01T03:09:29.806Z,996.68
2017-12-01T03:10:31.215Z,996.71
2017-12-01T03:11:32.623Z,996.71
2017-12-01T03:12:34.033Z,996.67
2017-12-01T03:13:35.437Z,996.68
2017-12-01T03:14:36.857Z,996.71
2017-12-01T03:15:38.254Z,996.71
2017-12-01T03:16:39.665Z,996.77
2017-12-01T03:17:41.078Z,996.81
2017-12-01T03:18:42.486Z,996.80
2017-12-01T03:19:43.921Z,996.80
2017-12-01T03:20:45.339Z,996.83
2017-12-01T03:21:46.748Z,996.82
2017-12-01T03:22:48.149Z,996.78
2017-12-01T03:23:49.557Z,996.83
2017-12-01T03:24:50.966Z,996.83
2017-12-01T03:25:52.379Z,996.81
2017-12-01T03:26:53.787Z,996.88
2017-12-01T03:27:55.193Z,996.88
2017-12-01T03:28:56.604Z,996.87
2017-12-01T03:29:58.005Z,996.91
2017-12-01T03:30:59.423Z,996.91
2017-12-01T03:32:00.839Z,996.97
2017-12-01T03:33:02.246Z,996.95
2017-12-01T03:34:03.667Z,996.98
2017-12-01T03:35:05.084Z,997.04
2017-12-01T03:36:06.492Z,997.05
2017-12-01T03:37:07.904Z,997.04
2017-12-01T03:38:09.313Z,997.04
2017-12-01T03:39:10.728Z,997.09
2017-12-01T03:40:12.139Z,997.10
2017-12-01T03:41:13.539Z,997.09
2017-12-01T03:42:14.950Z,997.11
2017-12-01T03:43:16.358Z,997.08
2017-12-01T03:44:17.774Z,997.14
2017-12-01T03:45:19.263Z,997.12
2017-12-01T03:46:20.671Z,997.19
2017-12-01T03:47:22.078Z,997.22
2017-12-01T03:48:23.491Z,997.25
2017-12-01T03:49:24.900Z,997.22
2017-12-01T03:50:26.309Z,997.24
2017-12-01T03:51:27.718Z,997.23
2017-12-01T03:52:29.128Z,997.19
2017-12-01T03:53:30.538Z,997.22
2017-12-01T03:54:31.951Z,997.23
2017-12-01T03:55:33.350Z,997.32
2017-12-01T03:56:34.760Z,997.30
2017-12-01T03:57:36.161Z,997.31
2017-12-01T03:58:37.570Z,997.34
2017-12-01T03:59:38.977Z,997.40
2017-12-01T04:00:40.395Z,997.43
2017-12-01T04:01:41.796Z,997.47
2017-12-01T04:02:43.197Z,997.44
2017-12-01T04:03:44.612Z,997.46
2017-12-01T04:04:46.018Z,997.48
2017-12-01T04:05:47.427Z,997.51
2017-12-01T04:06:48.840Z,997.50
2017-12-01T04:07:50.251Z,997.55
2017-12-01T04:08:51.663Z,997.58
2017-12-01T04:09:53.081Z,997.61
2017-12-01T04:10:54.526Z,997.61
2017-12-01T04:11:55.941Z,997.61
2017-12-01T04:12:57.353Z,997.63
2017-12-01T04:13:58.762Z,997.68
2017-12-01T04:15:00.174Z,997.73
2017-12-01T04:16:01.587Z,997.75
2017-12-01T04:17:03.000Z,997.75
2017-12-01T04:18:04.415Z,997.77
2017-12-01T04:19:05.832Z,997.76
2017-12-01T04:20:07.241Z,997.80
2017-12-01T04:21:08.652Z,997.76
2017-12-01T04:22:10.059Z,997.84
2017-12-01T04:23:11.472Z,997.84
2017-12-01T04:24:12.888Z,997.80
2017-12-01T04:25:14.302Z,997.86
2017-12-01T04:26:15.722Z,997.82
2017-12-01T04:27:17.132Z,997.88
2017-12-01T04:28:18.543Z,997.92
2017-12-01T04:29:19.959Z,997.93
2017-12-01T04:30:21.355Z,997.97
2017-12-01T04:31:22.772Z,997.99
2017-12-01T04:32:24.180Z,998.04
2017-12-01T04:33:25.597Z,997.98
2017-12-01T04:34:27.013Z,997.95
2017-12-01T04:35:28.419Z,997.97
2017-12-01T04:36:29.834Z,997.98
2017-12-01T04:37:31.238Z,997.99
2017-12-01T04:38:32.648Z,997.95
2017-12-01T04:39:34.062Z,997.99
2017-12-01T04:40:35.471Z,997.93
2017-12-01T04:41:36.887Z,997.94
2017-12-01T04:42:38.296Z,997.98
2017-12-01T04:43:39.750Z,998.02
2017-12-01T04:44:41.157Z,998.18
2017-12-01T04:45:42.564Z,998.22
2017-12-01T04:46:43.979Z,998.24
2017-12-01T04:47:45.388Z,998.27
2017-12-01T04:48:46.803Z,998.28
2017-12-01T04:49:48.220Z,998.22
2017-12-01T04:50:49.632Z,998.19
2017-12-01T04:51:51.036Z,998.15
2017-12-01T04:52:52.453Z,998.10
2017-12-01T04:53:53.856Z,998.10
2017-12-01T04:54:55.265Z,998.10
2017-12-01T04:55:56.681Z,998.07
2017-12-01T04:56:58.082Z,998.08
2017-12-01T04:57:59.487Z,998.12
2017-12-01T04:59:00.905Z,998.10
2017-12-01T05:00:02.312Z,998.10
2017-12-01T05:01:03.714Z,998.08
2017-12-01T05:02:05.135Z,998.17
2017-12-01T05:03:06.563Z,998.22
2017-12-01T05:04:07.967Z,998.28
2017-12-01T05:05:09.379Z,998.35
2017-12-01T05:06:10.790Z,998.32
2017-12-01T05:07:12.206Z,998.39
2017-12-01T05:08:13.613Z,998.41
2017-12-01T05:09:15.263Z,998.37
2017-12-01T05:10:16.631Z,998.46
2017-12-01T05:11:18.033Z,998.45
2017-12-01T05:12:19.442Z,998.46
2017-12-01T05:13:20.850Z,998.47
2017-12-01T05:14:22.261Z,998.46
2017-12-01T05:15:23.670Z,998.51
2017-12-01T05:16:25.074Z,998.55
2017-12-01T05:17:26.486Z,998.53
2017-12-01T05:18:27.895Z,998.58
2017-12-01T05:19:29.298Z,998.57
2017-12-01T05:20:30.714Z,998.58
2017-12-01T05:21:32.119Z,998.66
2017-12-01T05:22:33.531Z,998.70
2017-12-01T05:23:34.944Z,998.70
2017-12-01T05:24:36.358Z,998.72
2017-12-01T05:25:37.777Z,998.77
2017-12-01T05:26:39.183Z,998.80
2017-12-01T05:27:40.590Z,998.80
2017-12-01T05:28:41.988Z,998.85
2017-12-01T05:29:43.412Z,998.87
2017-12-01T05:30:44.818Z,998.93
2017-12-01T05:31:46.227Z,998.89
2017-12-01T05:32:47.635Z,998.90
2017-12-01T05:33:49.048Z,998.86
2017-12-01T05:34:50.503Z,998.88
2017-12-01T05:35:51.905Z,998.86
2017-12-01T05:36:53.397Z,998.90
2017-12-01T05:37:54.805Z,998.96
2017-12-01T05:38:56.210Z,998.91
2017-12-01T05:39:57.623Z,998.90
2017-12-01T05:40:59.025Z,998.95
2017-12-01T05:42:00.436Z,998.95
2017-12-01T05:43:02.764Z,999.00
2017-12-01T05:44:03.203Z,999.02
2017-12-01T05:45:04.607Z,998.96
2017-12-01T05:46:06.022Z,998.97
2017-12-01T05:47:07.430Z,999.01
2017-12-01T05:48:08.841Z,999.01
2017-12-01T05:49:10.248Z,999.07
2017-12-01T05:50:11.660Z,999.08
2017-12-01T05:51:13.065Z,999.12
2017-12-01T05:52:14.482Z,999.20
2017-12-01T05:53:15.890Z,999.22
2017-12-01T05:54:17.302Z,999.24
2017-12-01T05:55:18.723Z,999.20
2017-12-01T05:56:20.137Z,999.25
2017-12-01T05:57:21.544Z,999.28
2017-12-01T05:58:22.954Z,999.26
2017-12-01T05:59:24.360Z,999.31
2017-12-01T06:00:25.762Z,999.26
2017-12-01T06:01:27.209Z,999.26
2017-12-01T06:02:28.608Z,999.22
2017-12-01T06:03:30.021Z,999.20
2017-12-01T06:04:31.435Z,999.19
2017-12-01T06:05:32.840Z,999.21
2017-12-01T06:06:34.256Z,999.24
2017-12-01T06:07:35.660Z,999.26
2017-12-01T06:08:37.067Z,999.28
2017-12-01T06:09:38.483Z,999.30
2017-12-01T06:10:39.892Z,999.28
2017-12-01T06:11:41.299Z,999.33
2017-12-01T06:12:42.741Z,999.34
2017-12-01T06:13:44.151Z,999.32
2017-12-01T06:14:45.566Z,999.33
2017-12-01T06:15:46.980Z,999.33
2017-12-01T06:16:48.381Z,999.38
2017-12-01T06:17:49.787Z,999.42
2017-12-01T06:18:51.198Z,999.40
2017-12-01T06:19:52.605Z,999.45
2017-12-01T06:20:54.008Z,999.46
2017-12-01T06:21:55.415Z,999.52
2017-12-01T06:22:56.827Z,999.53
2017-12-01T06:23:58.231Z,999.54
2017-12-01T06:24:59.640Z,999.60
2017-12-01T06:26:01.050Z,999.58
2017-12-01T06:27:02.453Z,999.62
2017-12-01T06:28:03.857Z,999.63
2017-12-01T06:29:05.264Z,999.63
2017-12-01T06:30:06.686Z,999.67
2017-12-01T06:31:08.080Z,999.76
2017-12-01T06:32:09.502Z,999.73
2017-12-01T06:33:10.911Z,999.81
2017-12-01T06:34:12.315Z,999.82
2017-12-01T06:35:13.726Z,999.78
2017-12-01T06:36:15.141Z,999.85
2017-12-01T06:37:16.546Z,999.88
2017-12-01T06:38:18.086Z,999.88
2017-12-01T06:39:19.504Z,999.88
2017-12-01T06:40:20.915Z,999.92
2017-12-01T06:41:22.317Z,999.89
2017-12-01T06:42:23.729Z,999.89
2017-12-01T06:43:25.140Z,999.93
2017-12-01T06:44:26.548Z,999.95
2017-12-01T06:45:27.960Z,999.97
2017-12-01T06:46:29.367Z,999.99
2017-12-01T06:47:30.780Z,1000.00
2017-12-01T06:48:32.187Z,1000.05
2017-12-01T06:49:33.592Z,1000.04
2017-12-01T06:50:35.007Z,1000.04
2017-12-01T06:51:36.419Z,1000.11
2017-12-01T06:52:37.828Z,1000.12
2017-12-01T06:53:39.234Z,1000.08
2017-12-01T06:54:40.635Z,1000.08
2017-12-01T06:55:42.040Z,1000.12
2017-12-01T06:56:43.451Z,1000.18
2017-12-01T06:57:44.858Z,1000.22
2017-12-01T06:58:46.349Z,1000.16
2017-12-01T06:59:47.756Z,1000.21
2017-12-01T07:00:49.160Z,1000.27
2017-12-01T07:01:50.571Z,1000.28
2017-12-01T07:02:51.973Z,1000.26
2017-12-01T07:03:53.385Z,1000.34
2017-12-01T07:04:54.799Z,1000.34
2017-12-01T07:05:56.211Z,1000.36
2017-12-01T07:06:57.625Z,1000.34
2017-12-01T07:07:59.026Z,1000.40
2017-12-01T07:09:00.441Z,1000.40
2017-12-01T07:10:01.841Z,1000.44
2017-12-01T07:11:03.253Z,1000.49
2017-12-01T07:12:04.666Z,1000.50
2017-12-01T07:13:06.067Z,1000.55
2017-12-01T07:14:07.479Z,1000.55
2017-12-01T07:15:08.885Z,1000.57
2017-12-01T07:16:10.302Z,1000.59
2017-12-01T07:17:11.703Z,1000.61
2017-12-01T07:18:13.120Z,1000.63
2017-12-01T07:19:14.526Z,1000.65
2017-12-01T07:20:15.943Z,1000.67
2017-12-01T07:21:17.359Z,1000.62
2017-12-01T07:22:18.803Z,1000.71
2017-12-01T07:23:20.180Z,1000.67
2017-12-01T07:24:21.634Z,1000.67
2017-12-01T07:25:23.041Z,1000.71
2017-12-01T07:26:24.458Z,1000.70
2017-12-01T07:27:25.874Z,1000.75
2017-12-01T07:28:27.272Z,1000.72
2017-12-01T07:29:28.678Z,1000.78
2017-12-01T07:30:30.093Z,1000.79
2017-12-01T07:31:31.501Z,1000.77
2017-12-01T07:32:32.912Z,1000.77
2017-12-01T07:33:34.321Z,1000.76
2017-12-01T07:34:35.736Z,1000.78
2017-12-01T07:35:37.148Z,1000.77
2017-12-01T07:36:38.566Z,1000.77
2017-12-01T07:37:39.977Z,1000.79
2017-12-01T07:38:41.484Z,1000.80
2017-12-01T07:39:42.885Z,1000.76
2017-12-01T07:40:44.306Z,1000.84
2017-12-01T07:41:45.715Z,1000.83
2017-12-01T07:42:47.128Z,1000.86
2017-12-01T07:43:48.540Z,1000.83
2017-12-01T07:44:49.962Z,1000.91
2017-12-01T07:45:51.358Z,1000.93
2017-12-01T07:46:52.764Z,1001.02
2017-12-01T07:47:54.174Z,1000.98
2017-12-01T07:48:55.582Z,1000.98
2017-12-01T07:49:56.990Z,1001.06
2017-12-01T07:50:58.402Z,1001.02
2017-12-01T07:51:59.814Z,1000.99
2017-12-01T07:53:01.227Z,1001.02
2017-12-01T07:54:02.636Z,1001.03
2017-12-01T07:55:04.044Z,1001.03
2017-12-01T07:56:05.459Z,1001.07
2017-12-01T07:57:06.869Z,1001.06
2017-12-01T07:58:08.284Z,1001.11
2017-12-01T07:59:09.699Z,1001.14
2017-12-01T08:00:11.095Z,1001.13
2017-12-01T08:01:12.512Z,1001.20
2017-12-01T08:02:13.935Z,1001.20
2017-12-01T08:03:15.340Z,1001.19
2017-12-01T08:04:16.752Z,1001.24
2017-12-01T08:05:18.161Z,1001.25
2017-12-01T08:06:19.576Z,1001.31
2017-12-01T08:07:20.988Z,1001.29
2017-12-01T08:08:22.411Z,1001.35
2017-12-01T08:09:23.823Z,1001.37
2017-12-01T08:10:25.229Z,1001.47
2017-12-01T08:11:26.645Z,1001.44
2017-12-01T08:12:28.041Z,1001.49
2017-12-01T08:13:29.461Z,1001.53
2017-12-01T08:14:30.869Z,1001.58
2017-12-01T08:15:32.289Z,1001.54
2017-12-01T08:16:33.697Z,1001.56
2017-12-01T08:17:35.103Z,1001.57
2017-12-01T08:18:36.513Z,1001.64
2017-12-01T08:19:37.934Z,1001.63
2017-12-01T08:20:39.393Z,1001.65
2017-12-01T08:21:40.742Z,1001.60
2017-12-01T08:22:42.154Z,1001.67
2017-12-01T08:23:43.561Z,1001.66
2017-12-01T08:24:44.973Z,1001.70
2017-12-01T08:25:46.450Z,1001.76
2017-12-01T08:26:47.796Z,1001.76
2017-12-01T08:27:49.214Z,1001.77
2017-12-01T08:28:50.620Z,1001.77
2017-12-01T08:29:52.036Z,1001.78
2017-12-01T08:30:53.447Z,1001.80
2017-12-01T08:31:54.958Z,1001.85
2017-12-01T08:32:56.380Z,1001.86
2017-12-01T08:33:57.791Z,1001.84
2017-12-01T08:34:59.199Z,1001.90
2017-12-01T08:36:00.619Z,1001.89
2017-12-01T08:37:02.033Z,1001.92
2017-12-01T08:38:03.441Z,1001.99
2017-12-01T08:39:04.854Z,1001.98
2017-12-01T08:40:06.268Z,1001.96
2017-12-01T08:41:07.682Z,1001.97
2017-12-01T08:42:09.093Z,1002.02
2017-12-01T08:43:10.499Z,1002.05
2017-12-01T08:44:11.918Z,1002.04
2017-12-01T08:45:13.332Z,1002.04
2017-12-01T08:46:14.746Z,1002.00
2017-12-01T08:47:16.219Z,1002.03
2017-12-01T08:48:17.669Z,1002.07
2017-12-01T08:49:19.079Z,1002.14
2017-12-01T08:50:20.620Z,1002.10
2017-12-01T08:51:22.016Z,1002.09
2017-12-01T08:52:23.468Z,1002.09
2017-12-01T08:53:24.879Z,1002.07
2017-12-01T08:54:26.540Z,1002.08
2017-12-01T08:55:27.944Z,1002.16
2017-12-01T08:56:29.364Z,1002.17
2017-12-01T08:57:30.814Z,1002.14
2017-12-01T08:58:32.225Z,1002.18
2017-12-01T08:59:33.642Z,1002.17
2017-12-01T09:00:35.049Z,1002.20
2017-12-01T09:01:36.466Z,1002.23
2017-12-01T09:02:37.890Z,1002.24
2017-12-01T09:03:39.294Z,1002.28
2017-12-01T09:04:40.710Z,1002.30
2017-12-01T09:05:42.119Z,1002.34
2017-12-01T09:06:43.543Z,1002.36
2017-12-01T09:07:44.954Z,1002.40
2017-12-01T09:08:46.366Z,1002.45
2017-12-01T09:09:47.769Z,1002.48
2017-12-01T09:10:49.191Z,1002.49
2017-12-01T09:11:50.604Z,1002.51
2017-12-01T09:12:52.023Z,1002.55
2017-12-01T09:13:53.435Z,1002.52
2017-12-01T09:14:54.841Z,1002.52
2017-12-01T09:15:56.255Z,1002.60
2017-12-01T09:16:57.673Z,1002.59
2017-12-01T09:17:59.077Z,1002.60
2017-12-01T09:19:00.490Z,1002.58
2017-12-01T09:20:01.892Z,1002.65
2017-12-01T09:21:03.303Z,1002.67
2017-12-01T09:22:04.789Z,1002.67
2017-12-01T09:23:06.160Z,1002.66
2017-12-01T09:24:07.571Z,1002.72
2017-12-01T09:25:08.983Z,1002.69
2017-12-01T09:26:10.396Z,1002.70
2017-12-01T09:27:11.805Z,1002.69
2017-12-01T09:28:13.238Z,1002.71
2017-12-01T09:29:14.653Z,1002.75
2017-12-01T09:30:16.057Z,1002.77
2017-12-01T09:31:17.479Z,1002.84
2017-12-01T09:32:18.891Z,1002.83
2017-12-01T09:33:20.306Z,1002.92
2017-12-01T09:34:21.711Z,1002.88
2017-12-01T09:35:23.123Z,1002.89
2017-12-01T09:36:24.541Z,1002.90
2017-12-01T09:37:25.962Z,1003.00
2017-12-01T09:38:27.376Z,1002.96
2017-12-01T09:39:28.797Z,1003.00
2017-12-01T09:40:30.216Z,1002.99
2017-12-01T09:41:31.648Z,1003.00
2017-12-01T09:42:33.052Z,1003.06
2017-12-01T09:43:34.484Z,1003.12
2017-12-01T09:44:35.880Z,1003.11
2017-12-01T09:45:37.300Z,1003.15
2017-12-01T09:46:38.718Z,1003.17
2017-12-01T09:47:40.133Z,1003.13
2017-12-01T09:48:41.552Z,1003.15
2017-12-01T09:49:42.968Z,1003.16
2017-12-01T09:50:44.383Z,1003.19
2017-12-01T09:51:45.798Z,1003.22
2017-12-01T09:52:47.210Z,1003.25
2017-12-01T09:53:48.627Z,1003.26
2017-12-01T09:54:50.030Z,1003.26
2017-12-01T09:55:51.460Z,1003.28
2017-12-01T09:56:52.874Z,1003.29
2017-12-01T09:57:54.284Z,1003.28
2017-12-01T09:58:56.444Z,1003.29
2017-12-01T09:59:57.907Z,1003.27
2017-12-01T10:00:59.289Z,1003.27
2017-12-01T10:02:00.689Z,1003.33
2017-12-01T10:03:02.122Z,1003.33
2017-12-01T10:04:03.534Z,1003.34
2017-12-01T10:05:04.907Z,1003.37
2017-12-01T10:06:06.329Z,1003.37
2017-12-01T10:07:07.855Z,1003.39
2017-12-01T10:08:09.265Z,1003.36
2017-12-01T10:09:10.680Z,1003.34
2017-12-01T10:10:12.089Z,1003.45
2017-12-01T10:11:13.506Z,1003.43
2017-12-01T10:12:14.917Z,1003.45
2017-12-01T10:13:16.329Z,1003.48
2017-12-01T10:14:17.757Z,1003.47
2017-12-01T10:15:19.167Z,1003.43
2017-12-01T10:16:20.587Z,1003.45
2017-12-01T10:17:21.999Z,1003.49
2017-12-01T10:18:23.426Z,1003.45
2017-12-01T10:19:24.843Z,1003.43
2017-12-01T10:20:26.271Z,1003.45
2017-12-01T10:21:27.680Z,1003.40
2017-12-01T10:22:29.103Z,1003.45
2017-12-01T10:23:30.507Z,1003.49
2017-12-01T10:24:31.928Z,1003.47
2017-12-01T10:25:33.335Z,1003.50
2017-12-01T10:26:34.752Z,1003.48
2017-12-01T10:27:36.161Z,1003.49
2017-12-01T10:28:37.573Z,1003.59
2017-12-01T10:29:38.984Z,1003.53
2017-12-01T10:30:40.405Z,1003.57
2017-12-01T10:31:41.816Z,1003.55
2017-12-01T10:32:43.234Z,1003.56
2017-12-01T10:33:44.642Z,1003.56
2017-12-01T10:34:46.061Z,1003.55
2017-12-01T10:35:47.470Z,1003.60
2017-12-01T10:36:48.876Z,1003.58
2017-12-01T10:37:50.299Z,1003.58
2017-12-01T10:38:51.720Z,1003.58
2017-12-01T10:39:53.132Z,1003.56
2017-12-01T10:40:54.546Z,1003.56
2017-12-01T10:41:55.969Z,1003.57
2017-12-01T10:42:57.380Z,1003.61
2017-12-01T10:43:58.794Z,1003.58
2017-12-01T10:45:00.205Z,1003.61
2017-12-01T10:46:01.614Z,1003.60
2017-12-01T10:47:03.023Z,1003.63
2017-12-01T10:48:04.447Z,1003.60
2017-12-01T10:49:05.864Z,1003.69
2017-12-01T10:50:07.278Z,1003.65
2017-12-01T10:51:08.799Z,1003.60
2017-12-01T10:52:10.204Z,1003.69
2017-12-01T10:53:11.621Z,1003.67
2017-12-01T10:54:13.050Z,1003.62
2017-12-01T10:55:14.472Z,1003.66
2017-12-01T10:56:15.871Z,1003.65
2017-12-01T10:57:17.324Z,1003.58
2017-12-01T10:58:18.724Z,1003.66
2017-12-01T10:59:20.152Z,1003.67
2017-12-01T11:00:21.550Z,1003.69
2017-12-01T11:01:22.963Z,1003.71
2017-12-01T11:02:24.376Z,1003.72
2017-12-01T11:03:25.795Z,1003.80
2017-12-01T11:04:27.208Z,1003.80
2017-12-01T11:05:28.614Z,1003.75
2017-12-01T11:06:30.038Z,1003.85
2017-12-01T11:07:31.454Z,1003.83
2017-12-01T11:08:32.868Z,1003.85
2017-12-01T11:09:34.270Z,1003.90
2017-12-01T11:10:35.683Z,1003.89
2017-12-01T11:11:37.105Z,1003.92
2017-12-01T11:12:38.499Z,1003.90
2017-12-01T11:13:39.912Z,1003.84
2017-12-01T11:14:41.322Z,1003.84
2017-12-01T11:15:42.743Z,1003.85
2017-12-01T11:16:44.148Z,1003.85
2017-12-01T11:17:45.565Z,1003.86
2017-12-01T11:18:46.972Z,1003.89
2017-12-01T11:19:48.390Z,1003.91
2017-12-01T11:20:49.801Z,1003.90
2017-12-01T11:21:51.214Z,1003.96
2017-12-01T11:22:52.628Z,1003.95
2017-12-01T11:23:54.088Z,1003.99
2017-12-01T11:24:55.452Z,1004.04
2017-12-01T11:25:56.878Z,1004.04
2017-12-01T11:26:58.281Z,1004.08
2017-12-01T11:27:59.694Z,1004.05
2017-12-01T11:29:01.103Z,1004.09
2017-12-01T11:30:02.518Z,1003.96
2017-12-01T11:31:03.949Z,1004.05
2017-12-01T11:32:05.364Z,1003.99
2017-12-01T11:33:06.776Z,1004.01
2017-12-01T11:34:08.197Z,1004.05
2017-12-01T11:35:09.614Z,1004.03
2017-12-01T11:36:11.031Z,1004.08
2017-12-01T11:37:12.436Z,1004.06
2017-12-01T11:38:13.848Z,1004.03
2017-12-01T11:39:15.268Z,1004.11
2017-12-01T11:40:16.697Z,1004.12
2017-12-01T11:41:18.117Z,1004.14
2017-12-01T11:42:19.534Z,1004.12
2017-12-01T11:43:20.966Z,1004.15
2017-12-01T11:44:22.377Z,1004.21
2017-12-01T11:45:23.813Z,1004.22
2017-12-01T11:46:25.224Z,1004.18
2017-12-01T11:47:26.645Z,1004.21
2017-12-01T11:48:28.067Z,1004.24
2017-12-01T11:49:29.482Z,1004.25
2017-12-01T11:50:30.896Z,1004.21
2017-12-01T11:51:32.316Z,1004.30
2017-12-01T11:52:33.735Z,1004.23
2017-12-01T11:53:35.142Z,1004.26
2017-12-01T11:54:36.556Z,1004.29
2017-12-01T11:55:37.978Z,1004.35
2017-12-01T11:56:39.396Z,1004.33
2017-12-01T11:57:40.798Z,1004.34
2017-12-01T11:58:42.219Z,1004.38
2017-12-01T11:59:43.624Z,1004.35
2017-12-01T12:00:45.037Z,1004.40
2017-12-01T12:01:46.450Z,1004.39
2017-12-01T12:02:47.852Z,1004.40
2017-12-01T12:03:49.265Z,1004.35
2017-12-01T12:04:50.675Z,1004.42
2017-12-01T12:05:52.091Z,1004.41
2017-12-01T12:06:53.506Z,1004.43
2017-12-01T12:07:54.919Z,1004.40
2017-12-01T12:08:56.335Z,1004.43
2017-12-01T12:09:57.758Z,1004.43
2017-12-01T12:10:59.169Z,1004.48
2017-12-01T12:12:00.582Z,1004.49
2017-12-01T12:13:02.003Z,1004.46
2017-12-01T12:14:03.422Z,1004.50
2017-12-01T12:15:04.827Z,1004.54
2017-12-01T12:16:06.232Z,1004.52
2017-12-01T12:17:07.643Z,1004.48
2017-12-01T12:18:10.026Z,1004.45
2017-12-01T12:19:11.436Z,1004.49
2017-12-01T12:20:12.856Z,1004.50
2017-12-01T12:21:14.272Z,1004.48
2017-12-01T12:22:15.688Z,1004.50
2017-12-01T12:23:17.104Z,1004.44
2017-12-01T12:24:18.520Z,1004.44
2017-12-01T12:25:19.937Z,1004.32
2017-12-01T12:26:21.347Z,1004.21
2017-12-01T12:27:22.756Z,1004.22
2017-12-01T12:28:24.161Z,1004.32
2017-12-01T12:29:25.571Z,1004.34
2017-12-01T12:30:26.985Z,1004.45
2017-12-01T12:31:28.399Z,1004.40
2017-12-01T12:32:29.811Z,1004.47
2017-12-01T12:33:31.240Z,1004.46
2017-12-01T12:34:32.647Z,1004.49